sensor_id;sensor_type;location;lat;lon;timestamp;P1;durP1;ratioP1;P2;durP2;ratioP2
18200;SDS011;9226;47.858;9.594;2024-03-29T00:01:46;1.70;;;0.60;;
18200;SDS011;9226;47.858;9.594;2024-03-29T00:04:12;0.70;;;0.50;;
18200;SDS011;9226;47.858;9.594;2024-03-29T00:06:37;1.00;;;0.70;;
18200;SDS011;9226;47.858;9.594;2024-03-29T00:09:02;0.83;;;0.60;;
18200;SDS011;9226;47.858;9.594;2024-03-29T00:11:28;1.10;;;0.73;;
18200;SDS011;9226;47.858;9.594;2024-03-29T00:13:54;1.07;;;0.70;;
18200;SDS011;9226;47.858;9.594;2024-03-29T00:16:19;0.53;;;0.50;;
18200;SDS011;9226;47.858;9.594;2024-03-29T00:18:47;1.23;;;0.70;;
18200;SDS011;9226;47.858;9.594;2024-03-29T00:21:12;1.80;;;0.77;;
18200;SDS011;9226;47.858;9.594;2024-03-29T00:23:38;0.77;;;0.50;;
18200;SDS011;9226;47.858;9.594;2024-03-29T00:26:03;1.03;;;0.60;;
18200;SDS011;9226;47.858;9.594;2024-03-29T00:28:28;0.90;;;0.63;;
18200;SDS011;9226;47.858;9.594;2024-03-29T00:30:54;0.63;;;0.60;;
18200;SDS011;9226;47.858;9.594;2024-03-29T00:33:19;0.70;;;0.67;;
18200;SDS011;9226;47.858;9.594;2024-03-29T00:35:44;1.20;;;0.80;;
18200;SDS011;9226;47.858;9.594;2024-03-29T00:38:09;1.43;;;0.70;;
18200;SDS011;9226;47.858;9.594;2024-03-29T00:40:35;0.97;;;0.80;;
18200;SDS011;9226;47.858;9.594;2024-03-29T00:43:01;1.17;;;0.73;;
18200;SDS011;9226;47.858;9.594;2024-03-29T00:45:26;0.83;;;0.73;;
18200;SDS011;9226;47.858;9.594;2024-03-29T00:47:53;1.00;;;0.90;;
18200;SDS011;9226;47.858;9.594;2024-03-29T00:50:18;1.10;;;0.80;;
18200;SDS011;9226;47.858;9.594;2024-03-29T00:52:44;3.33;;;0.80;;
18200;SDS011;9226;47.858;9.594;2024-03-29T00:55:10;2.33;;;1.47;;
18200;SDS011;9226;47.858;9.594;2024-03-29T00:57:35;5.53;;;0.90;;
18200;SDS011;9226;47.858;9.594;2024-03-29T01:00:00;1.17;;;0.80;;
18200;SDS011;9226;47.858;9.594;2024-03-29T01:02:26;1.60;;;0.73;;
18200;SDS011;9226;47.858;9.594;2024-03-29T01:04:52;1.40;;;0.80;;
18200;SDS011;9226;47.858;9.594;2024-03-29T01:07:17;1.07;;;0.67;;
18200;SDS011;9226;47.858;9.594;2024-03-29T01:09:43;1.17;;;0.70;;
18200;SDS011;9226;47.858;9.594;2024-03-29T01:12:08;1.03;;;0.60;;
18200;SDS011;9226;47.858;9.594;2024-03-29T01:14:34;2.07;;;0.70;;
18200;SDS011;9226;47.858;9.594;2024-03-29T01:16:59;0.60;;;0.60;;
18200;SDS011;9226;47.858;9.594;2024-03-29T01:19:24;0.67;;;0.60;;
18200;SDS011;9226;47.858;9.594;2024-03-29T01:21:50;1.33;;;0.80;;
18200;SDS011;9226;47.858;9.594;2024-03-29T01:24:15;1.57;;;0.63;;
18200;SDS011;9226;47.858;9.594;2024-03-29T01:26:40;1.30;;;0.67;;
18200;SDS011;9226;47.858;9.594;2024-03-29T01:29:05;1.13;;;0.70;;
18200;SDS011;9226;47.858;9.594;2024-03-29T01:31:31;1.00;;;0.70;;
18200;SDS011;9226;47.858;9.594;2024-03-29T01:33:56;0.63;;;0.63;;
18200;SDS011;9226;47.858;9.594;2024-03-29T01:36:23;1.10;;;0.70;;
18200;SDS011;9226;47.858;9.594;2024-03-29T01:38:49;1.03;;;0.70;;
18200;SDS011;9226;47.858;9.594;2024-03-29T01:41:16;1.80;;;0.53;;
18200;SDS011;9226;47.858;9.594;2024-03-29T01:43:41;2.17;;;0.80;;
18200;SDS011;9226;47.858;9.594;2024-03-29T01:46:07;1.60;;;0.77;;
18200;SDS011;9226;47.858;9.594;2024-03-29T01:48:33;0.87;;;0.60;;
18200;SDS011;9226;47.858;9.594;2024-03-29T01:50:58;0.97;;;0.70;;
18200;SDS011;9226;47.858;9.594;2024-03-29T01:53:25;0.93;;;0.70;;
18200;SDS011;9226;47.858;9.594;2024-03-29T01:55:52;0.50;;;0.50;;
18200;SDS011;9226;47.858;9.594;2024-03-29T01:58:18;1.00;;;0.70;;
18200;SDS011;9226;47.858;9.594;2024-03-29T02:00:50;2.30;;;0.83;;
18200;SDS011;9226;47.858;9.594;2024-03-29T02:03:18;0.93;;;0.63;;
18200;SDS011;9226;47.858;9.594;2024-03-29T02:05:44;1.10;;;0.77;;
18200;SDS011;9226;47.858;9.594;2024-03-29T02:08:11;0.93;;;0.67;;
18200;SDS011;9226;47.858;9.594;2024-03-29T02:10:36;0.97;;;0.70;;
18200;SDS011;9226;47.858;9.594;2024-03-29T02:13:03;0.60;;;0.60;;
18200;SDS011;9226;47.858;9.594;2024-03-29T02:15:29;1.63;;;1.10;;
18200;SDS011;9226;47.858;9.594;2024-03-29T02:17:55;2.13;;;0.80;;
18200;SDS011;9226;47.858;9.594;2024-03-29T02:20:20;1.10;;;0.80;;
18200;SDS011;9226;47.858;9.594;2024-03-29T02:23:20;1.20;;;0.80;;
18200;SDS011;9226;47.858;9.594;2024-03-29T02:25:57;0.97;;;0.70;;
18200;SDS011;9226;47.858;9.594;2024-03-29T02:28:24;0.90;;;0.70;;
18200;SDS011;9226;47.858;9.594;2024-03-29T02:30:49;1.67;;;0.90;;
18200;SDS011;9226;47.858;9.594;2024-03-29T02:33:15;0.83;;;0.60;;
18200;SDS011;9226;47.858;9.594;2024-03-29T02:35:41;2.20;;;0.70;;
18200;SDS011;9226;47.858;9.594;2024-03-29T02:38:06;1.37;;;0.77;;
18200;SDS011;9226;47.858;9.594;2024-03-29T02:40:31;0.67;;;0.67;;
18200;SDS011;9226;47.858;9.594;2024-03-29T02:42:57;1.10;;;0.90;;
18200;SDS011;9226;47.858;9.594;2024-03-29T02:45:22;1.30;;;0.73;;
18200;SDS011;9226;47.858;9.594;2024-03-29T02:47:47;1.70;;;0.90;;
18200;SDS011;9226;47.858;9.594;2024-03-29T02:50:13;0.97;;;0.70;;
18200;SDS011;9226;47.858;9.594;2024-03-29T02:52:40;9.00;;;0.83;;
18200;SDS011;9226;47.858;9.594;2024-03-29T02:55:05;0.70;;;0.70;;
18200;SDS011;9226;47.858;9.594;2024-03-29T02:57:30;1.50;;;0.70;;
18200;SDS011;9226;47.858;9.594;2024-03-29T02:59:56;0.63;;;0.63;;
18200;SDS011;9226;47.858;9.594;2024-03-29T03:02:21;0.57;;;0.57;;
18200;SDS011;9226;47.858;9.594;2024-03-29T03:04:47;1.53;;;0.60;;
18200;SDS011;9226;47.858;9.594;2024-03-29T03:07:12;1.17;;;0.70;;
18200;SDS011;9226;47.858;9.594;2024-03-29T03:09:56;1.17;;;0.90;;
18200;SDS011;9226;47.858;9.594;2024-03-29T03:12:39;2.40;;;0.80;;
18200;SDS011;9226;47.858;9.594;2024-03-29T03:15:05;1.53;;;1.10;;
18200;SDS011;9226;47.858;9.594;2024-03-29T03:17:31;1.10;;;1.00;;
18200;SDS011;9226;47.858;9.594;2024-03-29T03:19:56;1.40;;;1.00;;
18200;SDS011;9226;47.858;9.594;2024-03-29T03:22:22;2.23;;;1.23;;
18200;SDS011;9226;47.858;9.594;2024-03-29T03:24:47;2.77;;;1.10;;
18200;SDS011;9226;47.858;9.594;2024-03-29T03:27:12;3.07;;;1.10;;
18200;SDS011;9226;47.858;9.594;2024-03-29T03:29:38;2.27;;;1.30;;
18200;SDS011;9226;47.858;9.594;2024-03-29T03:32:04;1.83;;;1.10;;
18200;SDS011;9226;47.858;9.594;2024-03-29T03:34:30;1.47;;;1.07;;
18200;SDS011;9226;47.858;9.594;2024-03-29T03:36:56;4.40;;;1.50;;
18200;SDS011;9226;47.858;9.594;2024-03-29T03:39:21;1.70;;;1.10;;
18200;SDS011;9226;47.858;9.594;2024-03-29T03:41:47;2.03;;;1.20;;
18200;SDS011;9226;47.858;9.594;2024-03-29T03:44:13;1.73;;;1.13;;
18200;SDS011;9226;47.858;9.594;2024-03-29T03:46:38;2.20;;;1.23;;
18200;SDS011;9226;47.858;9.594;2024-03-29T03:49:03;1.63;;;1.00;;
18200;SDS011;9226;47.858;9.594;2024-03-29T03:51:28;1.40;;;1.10;;
18200;SDS011;9226;47.858;9.594;2024-03-29T03:53:54;2.07;;;1.30;;
18200;SDS011;9226;47.858;9.594;2024-03-29T03:56:19;1.20;;;0.80;;
18200;SDS011;9226;47.858;9.594;2024-03-29T03:58:44;1.63;;;0.90;;
18200;SDS011;9226;47.858;9.594;2024-03-29T04:01:10;2.63;;;0.70;;
18200;SDS011;9226;47.858;9.594;2024-03-29T04:03:35;2.87;;;1.00;;
18200;SDS011;9226;47.858;9.594;2024-03-29T04:06:04;2.17;;;0.93;;
18200;SDS011;9226;47.858;9.594;2024-03-29T04:08:29;2.23;;;1.00;;
18200;SDS011;9226;47.858;9.594;2024-03-29T04:10:55;2.40;;;1.17;;
18200;SDS011;9226;47.858;9.594;2024-03-29T04:13:20;1.97;;;1.20;;
18200;SDS011;9226;47.858;9.594;2024-03-29T04:15:45;1.37;;;0.90;;
18200;SDS011;9226;47.858;9.594;2024-03-29T04:18:11;1.67;;;1.17;;
18200;SDS011;9226;47.858;9.594;2024-03-29T04:20:36;1.77;;;1.10;;
18200;SDS011;9226;47.858;9.594;2024-03-29T04:23:03;1.53;;;1.20;;
18200;SDS011;9226;47.858;9.594;2024-03-29T04:25:29;2.60;;;1.13;;
18200;SDS011;9226;47.858;9.594;2024-03-29T04:27:55;4.23;;;1.77;;
18200;SDS011;9226;47.858;9.594;2024-03-29T04:30:20;4.00;;;1.90;;
18200;SDS011;9226;47.858;9.594;2024-03-29T04:32:45;1.63;;;1.13;;
18200;SDS011;9226;47.858;9.594;2024-03-29T04:35:10;1.67;;;1.20;;
18200;SDS011;9226;47.858;9.594;2024-03-29T04:37:36;1.83;;;1.07;;
18200;SDS011;9226;47.858;9.594;2024-03-29T04:40:01;2.03;;;1.20;;
18200;SDS011;9226;47.858;9.594;2024-03-29T04:42:28;1.03;;;0.93;;
18200;SDS011;9226;47.858;9.594;2024-03-29T04:44:53;2.63;;;1.10;;
18200;SDS011;9226;47.858;9.594;2024-03-29T04:47:19;2.00;;;1.10;;
18200;SDS011;9226;47.858;9.594;2024-03-29T04:49:44;1.60;;;1.00;;
18200;SDS011;9226;47.858;9.594;2024-03-29T04:52:09;2.70;;;1.00;;
18200;SDS011;9226;47.858;9.594;2024-03-29T04:54:35;2.10;;;1.10;;
18200;SDS011;9226;47.858;9.594;2024-03-29T04:57:00;1.73;;;1.00;;
18200;SDS011;9226;47.858;9.594;2024-03-29T04:59:31;2.30;;;1.10;;
18200;SDS011;9226;47.858;9.594;2024-03-29T05:02:00;1.27;;;0.90;;
18200;SDS011;9226;47.858;9.594;2024-03-29T05:04:26;1.40;;;1.10;;
18200;SDS011;9226;47.858;9.594;2024-03-29T05:06:57;1.67;;;1.00;;
18200;SDS011;9226;47.858;9.594;2024-03-29T05:09:24;2.53;;;1.20;;
18200;SDS011;9226;47.858;9.594;2024-03-29T05:11:50;0.90;;;0.87;;
18200;SDS011;9226;47.858;9.594;2024-03-29T05:14:16;2.60;;;1.10;;
18200;SDS011;9226;47.858;9.594;2024-03-29T05:16:43;1.37;;;0.97;;
18200;SDS011;9226;47.858;9.594;2024-03-29T05:19:10;2.80;;;1.00;;
18200;SDS011;9226;47.858;9.594;2024-03-29T05:21:35;1.77;;;1.00;;
18200;SDS011;9226;47.858;9.594;2024-03-29T05:24:00;2.40;;;1.10;;
18200;SDS011;9226;47.858;9.594;2024-03-29T05:26:26;1.37;;;0.97;;
18200;SDS011;9226;47.858;9.594;2024-03-29T05:28:51;2.17;;;1.00;;
18200;SDS011;9226;47.858;9.594;2024-03-29T05:31:18;1.87;;;1.13;;
18200;SDS011;9226;47.858;9.594;2024-03-29T05:33:43;3.33;;;1.37;;
18200;SDS011;9226;47.858;9.594;2024-03-29T05:36:10;1.20;;;0.90;;
18200;SDS011;9226;47.858;9.594;2024-03-29T05:38:38;1.20;;;0.90;;
18200;SDS011;9226;47.858;9.594;2024-03-29T05:41:03;0.80;;;0.80;;
18200;SDS011;9226;47.858;9.594;2024-03-29T05:43:29;1.33;;;0.93;;
18200;SDS011;9226;47.858;9.594;2024-03-29T05:45:54;2.13;;;1.10;;
18200;SDS011;9226;47.858;9.594;2024-03-29T05:48:20;1.50;;;1.00;;
18200;SDS011;9226;47.858;9.594;2024-03-29T05:50:45;2.90;;;1.07;;
18200;SDS011;9226;47.858;9.594;2024-03-29T05:53:10;1.97;;;1.10;;
18200;SDS011;9226;47.858;9.594;2024-03-29T05:55:36;1.57;;;1.07;;
18200;SDS011;9226;47.858;9.594;2024-03-29T05:58:01;2.93;;;1.30;;
18200;SDS011;9226;47.858;9.594;2024-03-29T06:00:27;1.27;;;1.00;;
18200;SDS011;9226;47.858;9.594;2024-03-29T06:02:53;0.87;;;0.70;;
18200;SDS011;9226;47.858;9.594;2024-03-29T06:05:18;1.60;;;1.13;;
18200;SDS011;9226;47.858;9.594;2024-03-29T06:07:43;1.13;;;0.80;;
18200;SDS011;9226;47.858;9.594;2024-03-29T06:10:09;1.23;;;0.80;;
18200;SDS011;9226;47.858;9.594;2024-03-29T06:12:35;2.33;;;1.10;;
18200;SDS011;9226;47.858;9.594;2024-03-29T06:15:03;2.50;;;1.60;;
18200;SDS011;9226;47.858;9.594;2024-03-29T06:17:48;1.60;;;0.93;;
18200;SDS011;9226;47.858;9.594;2024-03-29T06:20:13;2.10;;;1.30;;
18200;SDS011;9226;47.858;9.594;2024-03-29T06:22:39;2.73;;;1.20;;
18200;SDS011;9226;47.858;9.594;2024-03-29T06:25:04;0.90;;;0.80;;
18200;SDS011;9226;47.858;9.594;2024-03-29T06:27:31;2.23;;;1.10;;
18200;SDS011;9226;47.858;9.594;2024-03-29T06:29:59;2.87;;;0.90;;
18200;SDS011;9226;47.858;9.594;2024-03-29T06:32:25;1.43;;;0.70;;
18200;SDS011;9226;47.858;9.594;2024-03-29T06:34:50;1.40;;;0.93;;
18200;SDS011;9226;47.858;9.594;2024-03-29T06:37:16;1.20;;;0.93;;
18200;SDS011;9226;47.858;9.594;2024-03-29T06:39:42;2.53;;;1.20;;
18200;SDS011;9226;47.858;9.594;2024-03-29T06:42:08;1.57;;;0.83;;
18200;SDS011;9226;47.858;9.594;2024-03-29T06:44:34;1.53;;;0.70;;
18200;SDS011;9226;47.858;9.594;2024-03-29T06:47:01;1.93;;;1.10;;
18200;SDS011;9226;47.858;9.594;2024-03-29T06:49:27;2.37;;;1.00;;
18200;SDS011;9226;47.858;9.594;2024-03-29T06:51:53;2.40;;;1.40;;
18200;SDS011;9226;47.858;9.594;2024-03-29T06:54:19;1.27;;;1.00;;
18200;SDS011;9226;47.858;9.594;2024-03-29T06:56:47;1.53;;;0.90;;
18200;SDS011;9226;47.858;9.594;2024-03-29T06:59:15;1.77;;;1.10;;
18200;SDS011;9226;47.858;9.594;2024-03-29T07:01:42;2.27;;;1.00;;
18200;SDS011;9226;47.858;9.594;2024-03-29T07:04:08;2.77;;;1.40;;
18200;SDS011;9226;47.858;9.594;2024-03-29T07:06:33;2.93;;;1.10;;
18200;SDS011;9226;47.858;9.594;2024-03-29T07:08:58;1.90;;;1.10;;
18200;SDS011;9226;47.858;9.594;2024-03-29T07:11:24;1.50;;;1.00;;
18200;SDS011;9226;47.858;9.594;2024-03-29T07:13:49;3.07;;;1.60;;
18200;SDS011;9226;47.858;9.594;2024-03-29T07:16:14;2.97;;;1.30;;
18200;SDS011;9226;47.858;9.594;2024-03-29T07:18:40;1.10;;;0.90;;
18200;SDS011;9226;47.858;9.594;2024-03-29T07:21:05;2.60;;;1.10;;
18200;SDS011;9226;47.858;9.594;2024-03-29T07:23:30;2.67;;;0.90;;
18200;SDS011;9226;47.858;9.594;2024-03-29T07:26:03;0.70;;;0.70;;
18200;SDS011;9226;47.858;9.594;2024-03-29T07:28:29;3.07;;;1.00;;
18200;SDS011;9226;47.858;9.594;2024-03-29T07:30:55;1.00;;;0.90;;
18200;SDS011;9226;47.858;9.594;2024-03-29T07:33:21;1.10;;;0.90;;
18200;SDS011;9226;47.858;9.594;2024-03-29T07:35:51;2.43;;;1.00;;
18200;SDS011;9226;47.858;9.594;2024-03-29T07:38:19;2.57;;;0.80;;
18200;SDS011;9226;47.858;9.594;2024-03-29T07:40:46;1.45;;;0.93;;
18200;SDS011;9226;47.858;9.594;2024-03-29T07:43:13;1.33;;;0.90;;
18200;SDS011;9226;47.858;9.594;2024-03-29T07:45:41;1.33;;;0.90;;
18200;SDS011;9226;47.858;9.594;2024-03-29T07:48:11;0.90;;;0.73;;
18200;SDS011;9226;47.858;9.594;2024-03-29T07:50:42;1.55;;;0.63;;
18200;SDS011;9226;47.858;9.594;2024-03-29T07:53:08;1.50;;;0.90;;
18200;SDS011;9226;47.858;9.594;2024-03-29T07:55:35;1.13;;;0.80;;
18200;SDS011;9226;47.858;9.594;2024-03-29T07:58:02;1.35;;;0.80;;
18200;SDS011;9226;47.858;9.594;2024-03-29T08:00:30;0.98;;;0.70;;
18200;SDS011;9226;47.858;9.594;2024-03-29T08:02:56;1.08;;;0.88;;
18200;SDS011;9226;47.858;9.594;2024-03-29T08:05:21;1.08;;;0.60;;
18200;SDS011;9226;47.858;9.594;2024-03-29T08:07:47;0.70;;;0.70;;
18200;SDS011;9226;47.858;9.594;2024-03-29T08:10:12;0.60;;;0.55;;
18200;SDS011;9226;47.858;9.594;2024-03-29T08:12:37;0.80;;;0.63;;
18200;SDS011;9226;47.858;9.594;2024-03-29T08:15:03;2.28;;;0.60;;
18200;SDS011;9226;47.858;9.594;2024-03-29T08:17:29;3.17;;;0.50;;
18200;SDS011;9226;47.858;9.594;2024-03-29T08:19:55;0.77;;;0.77;;
18200;SDS011;9226;47.858;9.594;2024-03-29T08:22:20;1.05;;;0.70;;
18200;SDS011;9226;47.858;9.594;2024-03-29T08:24:45;1.15;;;0.70;;
18200;SDS011;9226;47.858;9.594;2024-03-29T08:27:11;0.80;;;0.60;;
18200;SDS011;9226;47.858;9.594;2024-03-29T08:29:36;1.33;;;0.70;;
18200;SDS011;9226;47.858;9.594;2024-03-29T08:32:02;3.15;;;0.70;;
18200;SDS011;9226;47.858;9.594;2024-03-29T08:34:28;0.77;;;0.47;;
18200;SDS011;9226;47.858;9.594;2024-03-29T08:36:59;0.82;;;0.55;;
18200;SDS011;9226;47.858;9.594;2024-03-29T08:39:25;1.90;;;0.77;;
18200;SDS011;9226;47.858;9.594;2024-03-29T08:41:50;1.33;;;0.68;;
18200;SDS011;9226;47.858;9.594;2024-03-29T08:44:15;1.65;;;0.70;;
18200;SDS011;9226;47.858;9.594;2024-03-29T08:46:40;2.10;;;1.00;;
18200;SDS011;9226;47.858;9.594;2024-03-29T08:49:06;1.10;;;0.68;;
18200;SDS011;9226;47.858;9.594;2024-03-29T08:51:31;3.42;;;0.80;;
18200;SDS011;9226;47.858;9.594;2024-03-29T08:53:56;2.08;;;1.00;;
18200;SDS011;9226;47.858;9.594;2024-03-29T08:56:23;1.43;;;1.00;;
18200;SDS011;9226;47.858;9.594;2024-03-29T08:58:48;1.00;;;0.80;;
18200;SDS011;9226;47.858;9.594;2024-03-29T09:01:14;1.90;;;0.77;;
18200;SDS011;9226;47.858;9.594;2024-03-29T09:03:40;0.70;;;0.50;;
18200;SDS011;9226;47.858;9.594;2024-03-29T09:06:05;1.07;;;0.87;;
18200;SDS011;9226;47.858;9.594;2024-03-29T09:08:31;0.90;;;0.70;;
18200;SDS011;9226;47.858;9.594;2024-03-29T09:10:56;4.10;;;0.70;;
18200;SDS011;9226;47.858;9.594;2024-03-29T09:13:21;2.07;;;0.80;;
18200;SDS011;9226;47.858;9.594;2024-03-29T09:15:47;1.93;;;1.27;;
18200;SDS011;9226;47.858;9.594;2024-03-29T09:18:14;1.17;;;0.90;;
18200;SDS011;9226;47.858;9.594;2024-03-29T09:20:55;1.27;;;0.90;;
18200;SDS011;9226;47.858;9.594;2024-03-29T09:23:26;1.20;;;0.80;;
18200;SDS011;9226;47.858;9.594;2024-03-29T09:25:56;0.80;;;0.60;;
18200;SDS011;9226;47.858;9.594;2024-03-29T09:28:22;1.47;;;0.53;;
18200;SDS011;9226;47.858;9.594;2024-03-29T09:30:48;0.93;;;0.73;;
18200;SDS011;9226;47.858;9.594;2024-03-29T09:33:13;1.00;;;0.60;;
18200;SDS011;9226;47.858;9.594;2024-03-29T09:35:39;0.87;;;0.73;;
18200;SDS011;9226;47.858;9.594;2024-03-29T09:38:04;1.23;;;0.60;;
18200;SDS011;9226;47.858;9.594;2024-03-29T09:40:30;1.73;;;0.67;;
18200;SDS011;9226;47.858;9.594;2024-03-29T09:42:56;0.50;;;0.40;;
18200;SDS011;9226;47.858;9.594;2024-03-29T09:45:34;3.30;;;0.57;;
18200;SDS011;9226;47.858;9.594;2024-03-29T09:48:02;1.23;;;0.63;;
18200;SDS011;9226;47.858;9.594;2024-03-29T09:50:29;0.60;;;0.60;;
18200;SDS011;9226;47.858;9.594;2024-03-29T09:52:58;2.00;;;0.50;;
18200;SDS011;9226;47.858;9.594;2024-03-29T09:55:24;0.40;;;0.30;;
18200;SDS011;9226;47.858;9.594;2024-03-29T09:57:50;2.13;;;0.50;;
18200;SDS011;9226;47.858;9.594;2024-03-29T10:00:17;0.30;;;0.30;;
18200;SDS011;9226;47.858;9.594;2024-03-29T10:02:43;0.40;;;0.40;;
18200;SDS011;9226;47.858;9.594;2024-03-29T10:05:08;1.63;;;0.50;;
18200;SDS011;9226;47.858;9.594;2024-03-29T10:07:36;0.73;;;0.40;;
18200;SDS011;9226;47.858;9.594;2024-03-29T10:10:04;0.53;;;0.40;;
18200;SDS011;9226;47.858;9.594;2024-03-29T10:12:29;0.43;;;0.27;;
18200;SDS011;9226;47.858;9.594;2024-03-29T10:14:55;0.73;;;0.40;;
18200;SDS011;9226;47.858;9.594;2024-03-29T10:17:30;1.90;;;0.40;;
18200;SDS011;9226;47.858;9.594;2024-03-29T10:19:59;1.67;;;0.40;;
18200;SDS011;9226;47.858;9.594;2024-03-29T10:22:26;0.30;;;0.30;;
18200;SDS011;9226;47.858;9.594;2024-03-29T10:24:51;0.63;;;0.40;;
18200;SDS011;9226;47.858;9.594;2024-03-29T10:27:17;0.30;;;0.30;;
18200;SDS011;9226;47.858;9.594;2024-03-29T10:29:42;0.40;;;0.30;;
18200;SDS011;9226;47.858;9.594;2024-03-29T10:32:07;0.30;;;0.30;;
18200;SDS011;9226;47.858;9.594;2024-03-29T10:34:34;4.17;;;0.30;;
18200;SDS011;9226;47.858;9.594;2024-03-29T10:37:01;0.20;;;0.20;;
18200;SDS011;9226;47.858;9.594;2024-03-29T10:39:29;2.57;;;0.30;;
18200;SDS011;9226;47.858;9.594;2024-03-29T10:41:55;0.27;;;0.27;;
18200;SDS011;9226;47.858;9.594;2024-03-29T10:44:21;0.20;;;0.20;;
18200;SDS011;9226;47.858;9.594;2024-03-29T10:46:48;1.90;;;0.30;;
18200;SDS011;9226;47.858;9.594;2024-03-29T10:49:15;0.40;;;0.27;;
18200;SDS011;9226;47.858;9.594;2024-03-29T10:51:42;0.20;;;0.20;;
18200;SDS011;9226;47.858;9.594;2024-03-29T10:54:08;2.17;;;0.30;;
18200;SDS011;9226;47.858;9.594;2024-03-29T10:56:35;0.40;;;0.40;;
18200;SDS011;9226;47.858;9.594;2024-03-29T10:59:12;0.73;;;0.40;;
18200;SDS011;9226;47.858;9.594;2024-03-29T11:01:47;1.10;;;0.33;;
18200;SDS011;9226;47.858;9.594;2024-03-29T11:04:25;0.20;;;0.20;;
18200;SDS011;9226;47.858;9.594;2024-03-29T11:06:58;0.33;;;0.33;;
18200;SDS011;9226;47.858;9.594;2024-03-29T11:09:29;1.37;;;0.37;;
18200;SDS011;9226;47.858;9.594;2024-03-29T11:11:58;1.70;;;0.40;;
18200;SDS011;9226;47.858;9.594;2024-03-29T11:14:29;0.60;;;0.37;;
18200;SDS011;9226;47.858;9.594;2024-03-29T11:17:00;0.20;;;0.20;;
18200;SDS011;9226;47.858;9.594;2024-03-29T11:19:26;0.30;;;0.30;;
18200;SDS011;9226;47.858;9.594;2024-03-29T11:21:52;0.30;;;0.30;;
18200;SDS011;9226;47.858;9.594;2024-03-29T11:24:18;0.37;;;0.30;;
18200;SDS011;9226;47.858;9.594;2024-03-29T11:26:45;1.33;;;0.30;;
18200;SDS011;9226;47.858;9.594;2024-03-29T11:29:20;0.40;;;0.30;;
18200;SDS011;9226;47.858;9.594;2024-03-29T11:31:47;1.57;;;0.80;;
18200;SDS011;9226;47.858;9.594;2024-03-29T11:34:18;1.30;;;0.23;;
18200;SDS011;9226;47.858;9.594;2024-03-29T11:36:45;0.40;;;0.30;;
18200;SDS011;9226;47.858;9.594;2024-03-29T11:39:19;0.30;;;0.20;;
18200;SDS011;9226;47.858;9.594;2024-03-29T11:41:48;1.30;;;0.30;;
18200;SDS011;9226;47.858;9.594;2024-03-29T11:44:15;2.23;;;0.20;;
18200;SDS011;9226;47.858;9.594;2024-03-29T11:46:40;0.20;;;0.20;;
18200;SDS011;9226;47.858;9.594;2024-03-29T11:49:07;0.67;;;0.30;;
18200;SDS011;9226;47.858;9.594;2024-03-29T11:51:32;0.20;;;0.20;;
18200;SDS011;9226;47.858;9.594;2024-03-29T11:53:59;0.20;;;0.20;;
18200;SDS011;9226;47.858;9.594;2024-03-29T11:56:25;0.53;;;0.20;;
18200;SDS011;9226;47.858;9.594;2024-03-29T11:58:50;0.20;;;0.20;;
18200;SDS011;9226;47.858;9.594;2024-03-29T12:01:15;0.20;;;0.20;;
18200;SDS011;9226;47.858;9.594;2024-03-29T12:03:41;0.20;;;0.20;;
18200;SDS011;9226;47.858;9.594;2024-03-29T12:06:08;0.20;;;0.20;;
18200;SDS011;9226;47.858;9.594;2024-03-29T12:08:35;0.20;;;0.20;;
18200;SDS011;9226;47.858;9.594;2024-03-29T12:11:03;0.13;;;0.13;;
18200;SDS011;9226;47.858;9.594;2024-03-29T12:13:29;0.20;;;0.20;;
18200;SDS011;9226;47.858;9.594;2024-03-29T12:15:56;2.97;;;0.20;;
18200;SDS011;9226;47.858;9.594;2024-03-29T12:18:22;0.47;;;0.30;;
18200;SDS011;9226;47.858;9.594;2024-03-29T12:20:49;0.20;;;0.20;;
18200;SDS011;9226;47.858;9.594;2024-03-29T12:23:16;0.20;;;0.20;;
18200;SDS011;9226;47.858;9.594;2024-03-29T12:25:43;0.20;;;0.20;;
18200;SDS011;9226;47.858;9.594;2024-03-29T12:28:12;0.20;;;0.20;;
18200;SDS011;9226;47.858;9.594;2024-03-29T12:30:43;0.10;;;0.10;;
18200;SDS011;9226;47.858;9.594;2024-03-29T12:33:16;0.10;;;0.10;;
18200;SDS011;9226;47.858;9.594;2024-03-29T12:35:48;0.20;;;0.20;;
18200;SDS011;9226;47.858;9.594;2024-03-29T12:38:17;0.50;;;0.20;;
18200;SDS011;9226;47.858;9.594;2024-03-29T12:40:45;0.40;;;0.20;;
18200;SDS011;9226;47.858;9.594;2024-03-29T12:43:13;0.10;;;0.10;;
18200;SDS011;9226;47.858;9.594;2024-03-29T12:45:39;0.20;;;0.20;;
18200;SDS011;9226;47.858;9.594;2024-03-29T12:48:09;0.10;;;0.10;;
18200;SDS011;9226;47.858;9.594;2024-03-29T12:50:41;0.10;;;0.10;;
18200;SDS011;9226;47.858;9.594;2024-03-29T12:53:07;1.20;;;0.20;;
18200;SDS011;9226;47.858;9.594;2024-03-29T12:55:34;1.20;;;0.20;;
18200;SDS011;9226;47.858;9.594;2024-03-29T12:58:04;0.73;;;0.10;;
18200;SDS011;9226;47.858;9.594;2024-03-29T13:00:35;4.70;;;0.20;;
18200;SDS011;9226;47.858;9.594;2024-03-29T13:03:01;0.10;;;0.10;;
18200;SDS011;9226;47.858;9.594;2024-03-29T13:05:26;0.20;;;0.20;;
18200;SDS011;9226;47.858;9.594;2024-03-29T13:07:53;5.10;;;0.30;;
18200;SDS011;9226;47.858;9.594;2024-03-29T13:10:18;0.20;;;0.20;;
18200;SDS011;9226;47.858;9.594;2024-03-29T13:12:47;1.90;;;0.30;;
18200;SDS011;9226;47.858;9.594;2024-03-29T13:15:21;4.23;;;0.40;;
18200;SDS011;9226;47.858;9.594;2024-03-29T13:17:50;1.70;;;0.20;;
18200;SDS011;9226;47.858;9.594;2024-03-29T13:20:16;0.27;;;0.27;;
18200;SDS011;9226;47.858;9.594;2024-03-29T13:22:42;3.90;;;0.43;;
18200;SDS011;9226;47.858;9.594;2024-03-29T13:25:10;0.30;;;0.20;;
18200;SDS011;9226;47.858;9.594;2024-03-29T13:27:37;2.60;;;0.20;;
18200;SDS011;9226;47.858;9.594;2024-03-29T13:30:03;0.20;;;0.20;;
18200;SDS011;9226;47.858;9.594;2024-03-29T13:32:31;0.27;;;0.27;;
18200;SDS011;9226;47.858;9.594;2024-03-29T13:34:58;1.63;;;0.20;;
18200;SDS011;9226;47.858;9.594;2024-03-29T13:37:24;2.53;;;0.30;;
18200;SDS011;9226;47.858;9.594;2024-03-29T13:39:52;2.63;;;0.20;;
18200;SDS011;9226;47.858;9.594;2024-03-29T13:42:17;0.20;;;0.20;;
18200;SDS011;9226;47.858;9.594;2024-03-29T13:44:42;0.20;;;0.20;;
18200;SDS011;9226;47.858;9.594;2024-03-29T13:47:08;0.20;;;0.20;;
18200;SDS011;9226;47.858;9.594;2024-03-29T13:49:40;0.10;;;0.10;;
18200;SDS011;9226;47.858;9.594;2024-03-29T13:52:07;2.10;;;0.33;;
18200;SDS011;9226;47.858;9.594;2024-03-29T13:54:33;2.83;;;0.27;;
18200;SDS011;9226;47.858;9.594;2024-03-29T13:56:59;0.20;;;0.20;;
18200;SDS011;9226;47.858;9.594;2024-03-29T13:59:24;0.20;;;0.20;;
18200;SDS011;9226;47.858;9.594;2024-03-29T14:01:50;0.83;;;0.30;;
18200;SDS011;9226;47.858;9.594;2024-03-29T14:04:15;0.73;;;0.30;;
18200;SDS011;9226;47.858;9.594;2024-03-29T14:06:41;0.30;;;0.30;;
18200;SDS011;9226;47.858;9.594;2024-03-29T14:09:07;1.73;;;0.40;;
18200;SDS011;9226;47.858;9.594;2024-03-29T14:11:33;2.93;;;0.60;;
18200;SDS011;9226;47.858;9.594;2024-03-29T14:13:58;6.37;;;0.80;;
18200;SDS011;9226;47.858;9.594;2024-03-29T14:16:23;2.00;;;0.60;;
18200;SDS011;9226;47.858;9.594;2024-03-29T14:18:49;5.50;;;0.50;;
18200;SDS011;9226;47.858;9.594;2024-03-29T14:21:14;0.60;;;0.30;;
18200;SDS011;9226;47.858;9.594;2024-03-29T14:23:40;1.57;;;0.60;;
18200;SDS011;9226;47.858;9.594;2024-03-29T14:26:05;4.63;;;0.90;;
18200;SDS011;9226;47.858;9.594;2024-03-29T14:28:31;6.70;;;1.43;;
18200;SDS011;9226;47.858;9.594;2024-03-29T14:30:56;5.40;;;1.50;;
18200;SDS011;9226;47.858;9.594;2024-03-29T14:33:21;7.97;;;1.47;;
18200;SDS011;9226;47.858;9.594;2024-03-29T14:35:47;11.40;;;1.23;;
18200;SDS011;9226;47.858;9.594;2024-03-29T14:38:14;6.73;;;0.90;;
18200;SDS011;9226;47.858;9.594;2024-03-29T14:40:39;12.60;;;1.53;;
18200;SDS011;9226;47.858;9.594;2024-03-29T14:43:04;18.40;;;2.07;;
18200;SDS011;9226;47.858;9.594;2024-03-29T14:45:30;13.07;;;1.93;;
18200;SDS011;9226;47.858;9.594;2024-03-29T14:47:55;19.07;;;1.70;;
18200;SDS011;9226;47.858;9.594;2024-03-29T14:50:21;14.90;;;2.27;;
18200;SDS011;9226;47.858;9.594;2024-03-29T14:52:46;18.37;;;2.70;;
18200;SDS011;9226;47.858;9.594;2024-03-29T14:55:12;21.90;;;2.40;;
18200;SDS011;9226;47.858;9.594;2024-03-29T14:57:37;24.70;;;2.70;;